Home > Products > Valid Products > MTR

000
SAUS44 KEWX 271652
MTRATT
METAR KATT 271651Z AUTO 09006KT 10SM CLR 13/M03 A3054 RMK AO2 SLP343
T01281028





000
SAUS44 KEWX 271552
MTRATT
METAR KATT 271551Z AUTO VRB05KT 10SM CLR 12/M02 A3055 RMK AO2 SLP346
T01171017





000
SAUS44 KEWX 271452
MTRATT
METAR KATT 271451Z AUTO 03007KT 10SM CLR 09/M01 A3053 RMK AO2 SLP339
T00941011 52023





000
SAUS44 KEWX 271352
MTRATT
METAR KATT 271351Z AUTO VRB05KT 10SM CLR 08/00 A3050 RMK AO2 SLP331
T00780000





000
SAUS44 KEWX 271252
MTRATT
METAR KATT 271251Z AUTO 03008KT 10SM CLR 08/00 A3048 RMK AO2 SLP323
T00830000





000
SAUS44 KEWX 271152
MTRATT
METAR KATT 271151Z AUTO 03004KT 10SM CLR 08/02 A3046 RMK AO2 SLP313
T00830017 10111 20083 53019





000
SAUS44 KEWX 271052
MTRATT
METAR KATT 271051Z AUTO 02005KT 10SM CLR 09/02 A3043 RMK AO2 SLP303
T00890022





000
SAUS44 KEWX 270952
MTRATT
METAR KATT 270951Z AUTO 03005KT 10SM CLR 09/02 A3042 RMK AO2 SLP297
T00940022





000
SAUS44 KEWX 270853
MTRATT
METAR KATT 270851Z AUTO 02006KT 10SM CLR 11/02 A3040 RMK AO2 SLP290
T01060022 51011





000
SAUS44 KEWX 270752
MTRATT
METAR KATT 270751Z AUTO 02003KT 10SM CLR 09/03 A3039 RMK AO2 SLP288
T00940028





000
SAUS44 KEWX 270652
MTRATT
METAR KATT 270651Z AUTO 01004KT 10SM CLR 11/02 A3038 RMK AO2 SLP284
T01110022





000
SAUS44 KEWX 270553
MTRATT
METAR KATT 270551Z AUTO 00000KT 10SM CLR 09/03 A3037 RMK AO2 SLP281
T00940028 10189 20089 402500056 53020





000
SAUS44 KEWX 270452
MTRATT
METAR KATT 270451Z AUTO 36003KT 10SM CLR 11/02 A3034 RMK AO2 SLP272
T01110017





000
SAUS44 KEWX 270452
MTRATT
METAR KATT 270451Z AUTO 36003KT 10SM CLR 11/02 A3034 RMK AO2 SLP272
T01110017





000
SAUS44 KEWX 270352
MTRATT
METAR KATT 270351Z AUTO 00000KT 10SM CLR 11/03 A3033 RMK AO2 SLP270
T01060028





000
SAUS44 KEWX 270352
MTRATT
METAR KATT 270351Z AUTO 00000KT 10SM CLR 11/03 A3033 RMK AO2 SLP270
T01060028





000
SAUS44 KEWX 270252
MTRATT
METAR KATT 270251Z AUTO 00000KT 10SM CLR 12/03 A3031 RMK AO2 SLP262
T01220028 51029





000
SAUS44 KEWX 270152
MTRATT
METAR KATT 270151Z AUTO 00000KT 10SM CLR 14/02 A3028 RMK AO2 SLP256
T01390017





000
SAUS44 KEWX 270052
MTRATT
METAR KATT 270051Z AUTO 02003KT 10SM CLR 16/02 A3025 RMK AO2 SLP246
T01610017





000
SAUS44 KEWX 262352
MTRATT
METAR KATT 262351Z AUTO 01003KT 10SM CLR 18/02 A3022 RMK AO2 SLP233
T01780022 10250 20178 53018





000
SAUS44 KEWX 262253
MTRATT
METAR KATT 262251Z AUTO VRB03KT 10SM CLR 22/M01 A3019 RMK AO2 SLP221
T02171006





000
SAUS44 KEWX 262152
MTRATT
METAR KATT 262151Z AUTO 33006KT 10SM CLR 24/M02 A3018 RMK AO2 SLP214
T02391017





000
SAUS44 KEWX 262152
MTRATT
METAR KATT 262151Z AUTO 33006KT 10SM CLR 24/M02 A3018 RMK AO2 SLP214
T02391017





000
SAUS44 KEWX 262053
MTRATT
METAR KATT 262051Z AUTO 30004KT 10SM CLR 24/01 A3017 RMK AO2 SLP210
T02440011 55009





000
SAUS44 KEWX 261952
MTRATT
METAR KATT 261951Z AUTO VRB05KT 10SM CLR 24/M01 A3016 RMK AO2 SLP207
T02441006





000
SAUS44 KEWX 261853
MTRATT
METAR KATT 261851Z AUTO 23005KT 10SM CLR 23/02 A3016 RMK AO2 SLP209
T02280022





000
SAUS44 KEWX 261753
MTRATT
METAR KATT 261751Z AUTO VRB06G15KT 10SM CLR 21/02 A3019 RMK AO2
SLP221 T02110017 10217 20056 58005





000
SAUS44 KEWX 261652
MTRATT
METAR KATT 261651Z AUTO VRB06KT 10SM CLR 19/02 A3022 RMK AO2 SLP229
T01940022





000
SAUS44 KEWX 261552
MTRATT
METAR KATT 261551Z AUTO VRB03KT 10SM CLR 17/02 A3022 RMK AO2 SLP233
T01720022





000
SAUS44 KEWX 261452
MTRATT
METAR KATT 261451Z AUTO 22006KT 10SM CLR 14/02 A3021 RMK AO2 SLP231
T01390017 51009





000
SAUS44 KEWX 261352
MTRATT
METAR KATT 261351Z AUTO 19003KT 10SM CLR 08/01 A3020 RMK AO2 SLP229
T00830006





000
SAUS44 KEWX 261252
MTRATT
METAR KATT 261251Z AUTO 00000KT 10SM CLR 06/M01 A3020 RMK AO2 SLP229
T00611006





000
SAUS44 KEWX 261152
MTRATT
METAR KATT 261151Z AUTO 19003KT 10SM CLR 07/M01 A3018 RMK AO2 SLP223
T00671006 10117 20061 51006





000
SAUS44 KEWX 261052
MTRATT
METAR KATT 261051Z AUTO 00000KT 10SM CLR 08/M01 A3018 RMK AO2 SLP219
T00781011





000
SAUS44 KEWX 260953
MTRATT
METAR KATT 260951Z AUTO 00000KT 10SM CLR 11/M03 A3017 RMK AO2 SLP216
T01111028





000
SAUS44 KEWX 260953
MTRATT
METAR KATT 260951Z AUTO 00000KT 10SM CLR 11/M03 A3017 RMK AO2 SLP216
T01111028





000
SAUS44 KEWX 260853
MTRATT
METAR KATT 260851Z AUTO 24003KT 10SM CLR 11/M02 A3016 RMK AO2 SLP212
T01061017 58014





000
SAUS44 KEWX 260752
MTRATT
METAR KATT 260751Z AUTO VRB03KT 10SM CLR 11/M01 A3017 RMK AO2 SLP215
T01111011





000
SAUS44 KEWX 260652
MTRATT
METAR KATT 260651Z AUTO 24004KT 10SM CLR 11/00 A3020 RMK AO2 SLP223
T01110000





000
SAUS44 KEWX 260553
MTRATT
METAR KATT 260551Z AUTO 29003KT 10SM CLR 12/00 A3021 RMK AO2 SLP226
T01170000 10133 20072 401940033 56007





000
SAUS44 KEWX 260453
MTRATT
METAR KATT 260451Z AUTO VRB03KT 10SM CLR 10/01 A3021 RMK AO2 SLP230
T01000011





000
SAUS44 KEWX 260352
MTRATT
METAR KATT 260351Z AUTO 00000KT 10SM CLR 07/02 A3021 RMK AO2 SLP232
T00720022





000
SAUS44 KEWX 260352
MTRATT
METAR KATT 260351Z AUTO 00000KT 10SM CLR 07/02 A3021 RMK AO2 SLP232
T00720022





000
SAUS44 KEWX 260252
MTRATT
METAR KATT 260251Z AUTO 00000KT 10SM CLR 08/02 A3023 RMK AO2 SLP239
T00830017 51005





000
SAUS44 KEWX 260152
MTRATT
METAR KATT 260151Z AUTO 00000KT 10SM CLR 10/02 A3022 RMK AO2 SLP239
T01000017





000
SAUS44 KEWX 260052
MTRATT
METAR KATT 260051Z AUTO 00000KT 10SM CLR 12/01 A3021 RMK AO2 SLP235
T01170011





000
SAUS44 KEWX 252353
MTRATT
METAR KATT 252351Z AUTO 00000KT 10SM CLR 13/01 A3021 RMK AO2 SLP233
T01330011 10194 20133 55010 $





000
SAUS44 KEWX 252252
MTRATT
METAR KATT 252251Z AUTO 00000KT 10SM CLR 17/M02 A3021 RMK AO2 SLP229
T01721022 $





000
SAUS44 KEWX 252153
MTRATT
METAR KATT 252151Z AUTO 29007KT 10SM CLR 19/M04 A3022 RMK AO2 SLP232
T01891039





000
SAUS44 KEWX 252153
MTRATT
METAR KATT 252151Z AUTO 29007KT 10SM CLR 19/M04 A3022 RMK AO2 SLP232
T01891039





000
SAUS44 KEWX 252053
MTRATT
METAR KATT 252051Z AUTO 30007KT 10SM CLR 19/M03 A3024 RMK AO2 SLP241
T01891028 56029





000
SAUS44 KEWX 251952
MTRATT
METAR KATT 251951Z AUTO VRB05KT 10SM CLR 19/M03 A3027 RMK AO2 SLP248
T01891033





000
SAUS44 KEWX 251852
MTRATT
METAR KATT 251851Z AUTO VRB04KT 10SM CLR 18/M04 A3029 RMK AO2 SLP258
T01831039





000
SAUS44 KEWX 251753
MTRATT
METAR KATT 251751Z AUTO 29005KT 10SM CLR 17/01 A3033 RMK AO2 SLP272
T01720006 10172 20039 58002





000
SAUS44 KEWX 251652
MTRATT
METAR KATT 251651Z AUTO 30006KT 10SM CLR 14/02 A3035 RMK AO2 SLP281
T01440017





000
SAUS44 KEWX 251652
MTRATT
METAR KATT 251651Z AUTO 30006KT 10SM CLR 14/02 A3035 RMK AO2 SLP281
T01440017





000
SAUS44 KEWX 251552
MTRATT
METAR KATT 251551Z AUTO VRB03KT 10SM CLR 11/03 A3035 RMK AO2 SLP282
T01110033





000
SAUS44 KEWX 251452
MTRATT
METAR KATT 251451Z AUTO 00000KT 10SM CLR 07/02 A3034 RMK AO2 SLP278
T00720022 51026





000
SAUS44 KEWX 251352
MTRATT
METAR KATT 251351Z AUTO VRB04KT 10SM CLR 04/02 A3032 RMK AO2 SLP271
T00440017





000
SAUS44 KEWX 251252
MTRATT
METAR KATT 251251Z AUTO VRB04KT 10SM CLR 04/02 A3029 RMK AO2 SLP260
T00440017





000
SAUS44 KEWX 251153
MTRATT
METAR KATT 251151Z AUTO 30004KT 10SM CLR 04/02 A3026 RMK AO2 SLP249
T00440017 10061 20033 53018





000
SAUS44 KEWX 251052
MTRATT
METAR KATT 251051Z AUTO 30004KT 10SM CLR 05/02 A3023 RMK AO2 SLP239
T00500022





000
SAUS44 KEWX 251052
MTRATT
METAR KATT 251051Z AUTO 30004KT 10SM CLR 05/02 A3023 RMK AO2 SLP239
T00500022





000
SAUS44 KEWX 250953
MTRATT
METAR KATT 250951Z AUTO 33003KT 10SM CLR 06/02 A3021 RMK AO2 SLP231
T00560022





000
SAUS44 KEWX 250852
MTRATT
METAR KATT 250851Z AUTO 31003KT 10SM CLR 05/01 A3020 RMK AO2 SLP228
T00500011 53001





000
SAUS44 KEWX 250752
MTRATT
METAR KATT 250751Z AUTO 00000KT 10SM CLR 05/01 A3019 RMK AO2 SLP225
T00500006





000
SAUS44 KEWX 250652
MTRATT
METAR KATT 250651Z AUTO 33003KT 10SM CLR 06/02 A3020 RMK AO2 SLP227
T00560017





000
SAUS44 KEWX 250552
MTRATT
METAR KATT 250551Z AUTO 20003KT 10SM CLR 04/02 A3020 RMK AO2 SLP227
T00440017 10122 20044 401890044 51015





000
SAUS44 KEWX 250452
MTRATT
METAR KATT 250451Z AUTO 00000KT 10SM CLR 06/01 A3020 RMK AO2 SLP226
T00560011





000
SAUS44 KEWX 250353
MTRATT
METAR KATT 250351Z AUTO 00000KT 10SM CLR 06/01 A3017 RMK AO2 SLP218
T00610011





000
SAUS44 KEWX 250253
MTRATT
METAR KATT 250251Z AUTO 00000KT 10SM CLR 07/02 A3016 RMK AO2 SLP214
T00720017 53020





000
SAUS44 KEWX 250152
MTRATT
METAR KATT 250151Z AUTO 00000KT 10SM CLR 08/01 A3014 RMK AO2 SLP208
T00830006





000
SAUS44 KEWX 250052
MTRATT
METAR KATT 250051Z AUTO 00000KT 10SM CLR 11/M01 A3011 RMK AO2 SLP199
T01061011





000
SAUS44 KEWX 242353
MTRATT
METAR KATT 242351Z AUTO 00000KT 10SM CLR 13/M03 A3009 RMK AO2 SLP191
T01281028 10189 20128 53012





000
SAUS44 KEWX 242252
MTRATT
METAR KATT 242251Z AUTO 35004KT 10SM CLR 16/M05 A3006 RMK AO2 SLP179
T01561050





000
SAUS44 KEWX 242153
MTRATT
METAR KATT 242151Z AUTO VRB05KT 10SM CLR 18/M06 A3006 RMK AO2 SLP177
T01781056





000
SAUS44 KEWX 242153
MTRATT
METAR KATT 242151Z AUTO VRB05KT 10SM CLR 18/M06 A3006 RMK AO2 SLP177
T01781056





000
SAUS44 KEWX 242053
MTRATT
METAR KATT 242051Z AUTO 03008KT 10SM CLR 18/M06 A3006 RMK AO2 SLP177
T01781056 56014





000
SAUS44 KEWX 241953
MTRATT
METAR KATT 241951Z AUTO 02005KT 10SM CLR 18/M06 A3007 RMK AO2 SLP178
T01831056





000
SAUS44 KEWX 241852
MTRATT
METAR KATT 241851Z AUTO VRB04G16KT 10SM CLR 18/M07 A3008 RMK AO2
SLP183 T01781072





000
SAUS44 KEWX 241752
MTRATT
METAR KATT 241751Z AUTO 36005KT 10SM CLR 17/M02 A3010 RMK AO2 SLP189
T01721022 10172 20078 50003





    US Dept of Commerce
    National Oceanic and Atmospheric Administration
    National Weather Service
    1325 East West Highway
    Silver Spring, MD 20910
    Page Author: NWS Internet Services Team
Disclaimer
Information Quality
Credits
Glossary
Privacy Policy
Freedom of Information Act (FOIA)
About Us
Career Opportunities